Time;durP1;ratioP1;P1;durP2;ratioP2;P2;SDS_P1;SDS_P2;PMS_P1;PMS_P2;Temp;Humidity;BMP_temperature;BMP_pressure;BME280_temperature;BME280_humidity;BME280_pressure;Samples;Min_cycle;Max_cycle;Signal;HPM_P1;HPM_P2
2021/03/07 00:02:13;;;;;;;11.00;7.75;;;;;;;-0.15;53.00;99901.47;5114171;28;20054;-71
2021/03/07 00:04:39;;;;;;;11.68;7.32;;;;;;;-0.16;53.02;99901.59;5114027;28;20117;-70
2021/03/07 00:07:06;;;;;;;15.90;8.25;;;;;;;-0.24;52.82;99903.84;5114036;28;20051;-71
2021/03/07 00:09:33;;;;;;;11.50;7.88;;;;;;;-0.38;53.21;99902.09;5113720;28;20035;-71
2021/03/07 00:12:00;;;;;;;13.10;9.05;;;;;;;-0.50;53.71;99904.50;5113744;28;20051;-71
2021/03/07 00:14:27;;;;;;;14.32;8.90;;;;;;;-0.41;54.11;99897.94;5112653;28;20434;-72
2021/03/07 00:16:54;;;;;;;15.02;9.13;;;;;;;-0.48;53.94;99890.63;5114096;28;20055;-70
2021/03/07 00:19:21;;;;;;;11.63;7.90;;;;;;;-0.61;54.09;99891.38;5113888;28;20040;-71
2021/03/07 00:21:48;;;;;;;13.40;7.68;;;;;;;-0.71;54.35;99890.25;5112570;28;20050;-70
2021/03/07 00:24:14;;;;;;;14.50;8.13;;;;;;;-0.69;54.55;99893.63;5112391;28;20063;-72
2021/03/07 00:26:41;;;;;;;13.13;7.95;;;;;;;-0.58;54.60;99890.34;5113494;28;20036;-71
2021/03/07 00:29:08;;;;;;;13.43;8.13;;;;;;;-0.53;54.36;99883.13;5113486;28;20040;-71
2021/03/07 00:31:35;;;;;;;13.25;8.45;;;;;;;-0.54;54.29;99882.25;5113817;28;20539;-72
2021/03/07 00:34:03;;;;;;;14.50;8.15;;;;;;;-0.56;54.63;99876.34;5112290;28;20047;-70
2021/03/07 00:36:30;;;;;;;11.10;7.63;;;;;;;-0.55;54.80;99878.00;5113579;28;20035;-71
2021/03/07 00:38:56;;;;;;;10.98;7.90;;;;;;;-0.58;54.75;99878.19;5113072;28;20405;-71
2021/03/07 00:41:39;;;;;;;13.30;8.95;;;;;;;-0.74;54.75;99882.66;5113482;28;20112;-70
2021/03/07 00:44:07;;;;;;;12.75;8.52;;;;;;;-0.87;55.15;99876.56;5111955;28;20524;-71
2021/03/07 00:46:33;;;;;;;13.85;8.80;;;;;;;-1.00;55.42;99871.28;5113218;28;20040;-71
2021/03/07 00:49:01;;;;;;;15.27;8.85;;;;;;;-1.01;55.81;99874.81;5111761;28;20116;-70
2021/03/07 00:51:28;;;;;;;16.13;9.18;;;;;;;-1.02;55.88;99867.97;5112577;28;20047;-70
2021/03/07 00:53:55;;;;;;;13.55;8.48;;;;;;;-1.03;56.14;99856.72;5113061;28;20498;-70
2021/03/07 00:56:22;;;;;;;14.68;8.60;;;;;;;-0.92;56.24;99863.03;5111608;28;20117;-71
2021/03/07 00:58:48;;;;;;;12.25;8.65;;;;;;;-0.90;56.13;99851.63;5112973;28;20039;-70
2021/03/07 01:01:15;;;;;;;12.07;7.93;;;;;;;-0.89;56.05;99853.28;5113532;28;20035;-70
2021/03/07 01:03:43;;;;;;;11.00;7.00;;;;;;;-0.87;56.08;99842.81;5113219;28;20069;-70
2021/03/07 01:06:11;;;;;;;8.98;6.90;;;;;;;-0.86;55.99;99847.06;5113363;28;20036;-71
2021/03/07 01:08:38;;;;;;;12.20;9.38;;;;;;;-0.90;55.68;99843.00;5113004;28;20125;-71
2021/03/07 01:11:05;;;;;;;11.55;7.85;;;;;;;-0.95;55.85;99850.22;5111540;28;20055;-70
2021/03/07 01:13:32;;;;;;;11.85;7.90;;;;;;;-0.94;55.81;99849.28;5112915;28;20051;-72
2021/03/07 01:15:59;;;;;;;13.50;7.78;;;;;;;-0.99;55.68;99844.38;5112596;28;20098;-70
2021/03/07 01:18:26;;;;;;;10.10;7.18;;;;;;;-1.18;55.56;99839.50;5112543;28;20039;-72
2021/03/07 01:20:53;;;;;;;10.15;6.97;;;;;;;-1.34;56.11;99831.81;5112566;28;20117;-71
2021/03/07 01:23:21;;;;;;;11.75;7.30;;;;;;;-1.44;56.38;99837.63;5112700;28;20036;-71
2021/03/07 01:25:48;;;;;;;11.05;6.57;;;;;;;-1.40;56.97;99831.31;5112314;28;20035;-71
2021/03/07 01:28:16;;;;;;;8.95;6.78;;;;;;;-1.25;56.44;99822.63;5112530;28;20447;-71
2021/03/07 01:30:43;;;;;;;10.88;6.82;;;;;;;-1.14;56.64;99816.81;5112499;28;20054;-71
2021/03/07 01:33:11;;;;;;;9.52;7.50;;;;;;;-1.15;55.99;99809.91;5112630;28;20043;-71
2021/03/07 01:35:38;;;;;;;11.77;7.40;;;;;;;-1.28;56.16;99802.88;5135081;28;20099;-74
2021/03/07 01:38:05;;;;;;;11.10;7.00;;;;;;;-1.32;56.59;99814.38;5139157;28;20032;-74
2021/03/07 01:40:36;;;;;;;14.55;8.00;;;;;;;-1.16;56.59;99811.69;5127411;28;20043;-70
2021/03/07 01:43:04;;;;;;;14.35;8.35;;;;;;;-1.11;56.24;99814.81;5113149;28;20046;-71
2021/03/07 01:45:33;;;;;;;10.63;7.30;;;;;;;-1.06;56.00;99793.81;5112582;28;20043;-71
2021/03/07 01:48:03;;;;;;;14.57;8.20;;;;;;;-1.10;55.78;99787.13;5112399;28;20044;-70
2021/03/07 01:50:36;;;;;;;12.63;7.95;;;;;;;-1.28;56.20;99783.88;5112580;28;20448;-71
2021/03/07 01:53:04;;;;;;;12.00;8.55;;;;;;;-1.35;56.97;99785.19;5112769;28;20047;-71
2021/03/07 01:55:34;;;;;;;13.30;8.95;;;;;;;-1.28;57.03;99784.72;5111539;28;20386;-71
2021/03/07 01:58:04;;;;;;;12.07;7.07;;;;;;;-1.18;56.87;99779.81;5112833;28;20086;-70
2021/03/07 02:00:31;;;;;;;9.98;7.15;;;;;;;-1.17;56.71;99772.88;5112251;28;20039;-71
2021/03/07 02:02:58;;;;;;;11.38;7.10;;;;;;;-1.19;56.78;99764.34;5112892;28;20392;-71
2021/03/07 02:05:26;;;;;;;12.13;7.80;;;;;;;-1.15;56.38;99769.22;5116338;28;20124;-70
2021/03/07 02:07:53;;;;;;;13.25;8.48;;;;;;;-1.23;56.72;99757.66;5116421;28;20498;-70
2021/03/07 02:10:23;;;;;;;12.80;8.50;;;;;;;-1.36;56.78;99760.19;5116276;28;20489;-70
2021/03/07 02:12:54;;;;;;;14.02;8.80;;;;;;;-1.52;57.14;99758.50;5116257;28;20058;-72
2021/03/07 02:15:22;;;;;;;11.75;8.40;;;;;;;-1.72;57.64;99750.25;5116256;28;20048;-70
2021/03/07 02:17:54;;;;;;;11.13;7.78;;;;;;;-1.64;58.20;99759.25;5116343;28;20494;-72
2021/03/07 02:20:23;;;;;;;12.55;8.30;;;;;;;-1.54;57.98;99752.59;5115358;28;20044;-70
2021/03/07 02:22:56;;;;;;;12.45;8.43;;;;;;;-1.53;57.72;99746.47;5116330;28;20039;-71
2021/03/07 02:25:26;;;;;;;14.68;8.55;;;;;;;-1.60;57.50;99750.34;5114864;28;20059;-70
2021/03/07 02:27:54;;;;;;;12.23;8.32;;;;;;;-1.77;57.92;99746.19;5115928;28;20504;-71
2021/03/07 02:30:22;;;;;;;12.35;8.70;;;;;;;-1.79;58.61;99755.00;5114608;28;20440;-71
2021/03/07 02:32:55;;;;;;;12.27;8.73;;;;;;;-1.68;58.46;99742.22;5116018;28;20063;-71
2021/03/07 02:35:25;;;;;;;12.82;8.23;;;;;;;-1.68;58.39;99742.22;5115782;28;20122;-71
2021/03/07 02:37:56;;;;;;;12.10;8.90;;;;;;;-1.73;58.34;99741.66;5115866;28;20039;-71
2021/03/07 02:40:25;;;;;;;13.80;9.20;;;;;;;-1.73;58.64;99727.88;5116087;28;20044;-71
2021/03/07 02:43:12;;;;;;;13.30;8.63;;;;;;;-1.80;58.45;99724.78;5116483;28;20039;-71
2021/03/07 02:45:43;;;;;;;12.93;8.48;;;;;;;-1.79;59.00;99721.28;5115493;28;20386;-70
2021/03/07 02:48:15;;;;;;;14.23;8.23;;;;;;;-1.82;58.60;99713.69;5114510;28;20043;-72
2021/03/07 02:50:44;;;;;;;11.63;8.07;;;;;;;-1.76;59.08;99715.91;5115691;28;20032;-71
2021/03/07 02:53:15;;;;;;;15.75;8.75;;;;;;;-1.71;59.26;99716.50;5115742;28;20039;-71
2021/03/07 02:55:45;;;;;;;15.80;8.93;;;;;;;-1.70;59.09;99722.50;5115481;27;20101;-71
2021/03/07 02:58:15;;;;;;;14.35;8.68;;;;;;;-1.60;58.82;99726.19;5115580;28;20044;-70
2021/03/07 03:00:49;;;;;;;13.75;8.15;;;;;;;-1.62;58.70;99720.28;5115250;28;20067;-71
2021/03/07 03:03:19;;;;;;;14.40;8.95;;;;;;;-1.69;58.59;99719.81;5114325;28;20048;-70
2021/03/07 03:05:49;;;;;;;12.20;8.40;;;;;;;-1.82;58.85;99721.47;5115269;28;20050;-71
2021/03/07 03:08:17;;;;;;;14.50;8.63;;;;;;;-1.94;59.07;99712.66;5115358;28;20505;-70
2021/03/07 03:10:46;;;;;;;12.90;8.90;;;;;;;-1.95;59.34;99717.94;5115303;27;20043;-71
2021/03/07 03:13:30;;;;;;;13.23;8.85;;;;;;;-2.05;59.42;99710.69;5115290;28;20043;-71
2021/03/07 03:15:58;;;;;;;13.68;8.70;;;;;;;-2.10;59.74;99712.72;5114308;28;20040;-71
2021/03/07 03:18:28;;;;;;;12.55;8.63;;;;;;;-2.09;59.50;99704.03;5115225;28;20138;-71
2021/03/07 03:20:58;;;;;;;13.23;8.85;;;;;;;-2.24;59.69;99715.31;5115125;28;20722;-71
2021/03/07 03:23:25;;;;;;;17.17;8.93;;;;;;;-2.29;60.03;99712.13;5113871;28;20421;-72
2021/03/07 03:25:53;;;;;;;12.27;8.20;;;;;;;-2.29;60.16;99710.41;5114641;28;20040;-70
2021/03/07 03:28:22;;;;;;;15.25;9.00;;;;;;;-2.33;60.22;99710.66;5114841;28;20139;-71
2021/03/07 03:30:49;;;;;;;15.32;8.57;;;;;;;-2.29;60.44;99714.72;5114761;28;20036;-71
2021/03/07 03:33:16;;;;;;;10.35;7.10;;;;;;;-2.21;60.08;99707.34;5114898;28;20161;-71
2021/03/07 03:35:43;;;;;;;14.25;8.85;;;;;;;-2.21;60.29;99709.94;5114705;28;20134;-70
2021/03/07 03:38:09;;;;;;;12.65;7.60;;;;;;;-2.16;60.17;99707.09;5114536;28;20036;-71
2021/03/07 03:40:38;;;;;;;11.90;7.18;;;;;;;-2.18;60.25;99712.34;5114517;28;20043;-70
2021/03/07 03:43:08;;;;;;;10.90;7.70;;;;;;;-2.23;59.95;99714.38;5114435;28;20040;-70
2021/03/07 03:45:37;;;;;;;11.85;8.27;;;;;;;-2.31;60.22;99711.41;5113135;28;20051;-69
2021/03/07 03:48:07;;;;;;;13.52;8.60;;;;;;;-2.46;60.47;99710.53;5113060;28;20181;-71
2021/03/07 03:50:40;;;;;;;13.93;8.38;;;;;;;-2.39;60.82;99711.00;5113177;28;20044;-70
2021/03/07 03:53:12;;;;;;;12.00;7.35;;;;;;;-2.47;60.68;99708.84;5114267;28;20043;-70
2021/03/07 03:55:41;;;;;;;12.80;8.00;;;;;;;-2.55;60.65;99708.47;5114245;28;20040;-70
2021/03/07 03:58:10;;;;;;;16.42;8.05;;;;;;;-2.55;60.79;99701.53;5114038;28;20047;-70
2021/03/07 04:00:39;;;;;;;14.35;7.72;;;;;;;-2.56;60.81;99707.63;5113982;28;20122;-69
2021/03/07 04:03:10;;;;;;;11.55;7.88;;;;;;;-2.61;60.58;99703.66;5112477;28;20055;-70
2021/03/07 04:05:38;;;;;;;10.52;7.80;;;;;;;-2.65;60.83;99703.00;5113948;28;20416;-70
2021/03/07 04:08:05;;;;;;;11.88;7.00;;;;;;;-2.60;61.37;99707.91;5113863;28;20431;-70
2021/03/07 04:10:32;;;;;;;11.75;7.57;;;;;;;-2.54;61.00;99718.72;5114023;28;20039;-70
2021/03/07 04:13:00;;;;;;;11.95;7.80;;;;;;;-2.56;60.95;99720.59;5113904;28;20040;-70
2021/03/07 04:15:29;;;;;;;11.18;7.75;;;;;;;-2.50;60.92;99715.03;5113722;28;20087;-70
2021/03/07 04:17:57;;;;;;;12.95;7.95;;;;;;;-2.49;60.79;99721.06;5112394;28;20058;-70
2021/03/07 04:20:26;;;;;;;14.18;8.00;;;;;;;-2.60;60.96;99723.44;5113674;28;20046;-69
2021/03/07 04:22:53;;;;;;;13.95;8.38;;;;;;;-2.66;61.46;99711.66;5112527;28;20043;-70
2021/03/07 04:25:21;;;;;;;13.07;8.65;;;;;;;-2.65;61.49;99717.69;5113796;28;20048;-70
2021/03/07 04:27:48;;;;;;;11.35;8.05;;;;;;;-2.65;60.96;99718.53;5112111;28;20062;-70
2021/03/07 04:30:21;;;;;;;13.23;8.75;;;;;;;-2.86;61.40;99720.56;5112518;28;20058;-70
2021/03/07 04:32:49;;;;;;;11.30;8.27;;;;;;;-2.97;61.83;99720.31;5115175;28;20113;-70
2021/03/07 04:35:17;;;;;;;11.85;8.27;;;;;;;-2.93;62.07;99718.41;5113640;28;20114;-70
2021/03/07 04:37:44;;;;;;;12.73;8.30;;;;;;;-2.90;62.26;99715.63;5113551;28;20051;-70
2021/03/07 04:40:12;;;;;;;12.93;8.48;;;;;;;-2.95;62.20;99715.03;5112162;28;20050;-70
2021/03/07 04:42:41;;;;;;;9.68;7.22;;;;;;;-2.93;62.42;99715.81;5113521;28;20051;-70
2021/03/07 04:45:10;;;;;;;11.48;7.63;;;;;;;-2.95;62.21;99726.22;5113417;28;20039;-70
2021/03/07 04:47:37;;;;;;;10.93;7.53;;;;;;;-3.10;62.47;99724.50;5113319;28;20043;-69
2021/03/07 04:50:07;;;;;;;12.60;7.45;;;;;;;-3.21;62.65;99724.25;5113213;28;20050;-69
2021/03/07 04:52:35;;;;;;;12.95;6.40;;;;;;;-3.23;62.54;99716.53;5113389;28;20042;-71
2021/03/07 04:55:03;;;;;;;9.70;6.47;;;;;;;-3.39;63.21;99726.91;5112019;28;20047;-70
2021/03/07 04:57:30;;;;;;;8.88;6.85;;;;;;;-3.26;63.08;99727.91;5113086;28;20490;-70
2021/03/07 04:59:57;;;;;;;11.15;6.75;;;;;;;-3.18;63.03;99731.84;5111371;28;20501;-70
2021/03/07 05:02:23;;;;;;;10.65;6.93;;;;;;;-3.16;62.49;99717.88;5113143;28;20379;-70
2021/03/07 05:04:50;;;;;;;12.95;7.20;;;;;;;-3.21;62.78;99724.25;5114144;28;20051;-73
2021/03/07 05:07:18;;;;;;;10.30;6.30;;;;;;;-3.24;62.85;99720.88;5139001;28;20031;-73
2021/03/07 05:09:44;;;;;;;10.32;6.45;;;;;;;-3.30;62.90;99721.22;5139255;28;20106;-73
2021/03/07 05:12:11;;;;;;;9.63;6.63;;;;;;;-3.34;62.79;99716.31;5139593;28;20047;-74
2021/03/07 05:14:58;;;;;;;12.25;6.70;;;;;;;-3.47;62.99;99715.28;5133419;28;20043;-70
2021/03/07 05:17:27;;;;;;;11.85;6.80;;;;;;;-3.52;63.15;99711.19;5114233;28;20040;-70
2021/03/07 05:19:54;;;;;;;8.95;6.18;;;;;;;-3.53;63.67;99711.28;5112281;28;20412;-70
2021/03/07 05:22:21;;;;;;;9.43;6.53;;;;;;;-3.44;63.71;99710.78;5113366;28;20044;-71
2021/03/07 05:24:48;;;;;;;9.23;6.00;;;;;;;-3.43;63.37;99707.31;5112899;28;20058;-70
2021/03/07 05:27:15;;;;;;;8.73;6.35;;;;;;;-3.51;63.17;99706.88;5113177;28;20054;-71
2021/03/07 05:29:42;;;;;;;10.20;6.75;;;;;;;-3.55;63.13;99705.38;5113291;28;20451;-71
2021/03/07 05:32:08;;;;;;;8.18;5.75;;;;;;;-3.57;63.25;99702.84;5114042;28;20051;-70
2021/03/07 05:34:35;;;;;;;9.15;6.32;;;;;;;-3.63;63.23;99700.59;5112592;28;20051;-70
2021/03/07 05:37:02;;;;;;;9.90;6.50;;;;;;;-3.64;63.47;99704.06;5112542;28;20044;-70
2021/03/07 05:39:30;;;;;;;7.88;6.22;;;;;;;-3.70;63.80;99703.59;5112230;28;20039;-71
2021/03/07 05:41:57;;;;;;;8.63;6.00;;;;;;;-3.69;63.73;99702.66;5113102;28;20039;-72
2021/03/07 05:44:25;;;;;;;9.73;5.85;;;;;;;-3.60;63.97;99695.25;5113225;28;20054;-70
2021/03/07 05:46:52;;;;;;;6.20;5.28;;;;;;;-3.56;63.43;99695.91;5116900;28;20039;-71
2021/03/07 05:49:19;;;;;;;7.55;5.53;;;;;;;-3.44;63.44;99694.44;5116191;28;20074;-70
2021/03/07 05:51:46;;;;;;;9.45;6.32;;;;;;;-3.44;63.27;99694.44;5112829;28;20044;-71
2021/03/07 05:54:16;;;;;;;9.10;6.43;;;;;;;-3.53;62.78;99691.44;5113014;28;20490;-71
2021/03/07 05:56:48;;;;;;;8.00;5.93;;;;;;;-3.64;62.87;99695.50;5114193;28;20055;-72
2021/03/07 05:59:15;;;;;;;8.68;5.45;;;;;;;-3.69;63.04;99700.06;5115146;28;20386;-72
2021/03/07 06:01:42;;;;;;;7.90;5.85;;;;;;;-3.68;63.01;99691.41;5114679;28;20050;-72
2021/03/07 06:04:09;;;;;;;8.50;5.25;;;;;;;-3.59;63.19;99690.94;5115444;28;20044;-71
2021/03/07 06:06:36;;;;;;;10.68;5.93;;;;;;;-3.47;63.23;99686.84;5113483;28;20047;-72
2021/03/07 06:09:27;;;;;;;11.35;5.35;;;;;;;-3.43;62.69;99689.19;5110649;28;20047;-74
2021/03/07 06:11:57;;;;;;;8.05;5.57;;;;;;;-3.58;62.68;99690.84;5108710;28;20058;-72
2021/03/07 06:14:26;;;;;;;8.40;5.40;;;;;;;-3.64;62.96;99687.75;5111979;28;20039;-71
2021/03/07 06:17:01;;;;;;;11.05;6.20;;;;;;;-3.54;63.15;99689.75;5112308;28;20043;-72
2021/03/07 06:19:28;;;;;;;8.68;5.93;;;;;;;-3.53;62.53;99688.84;5112411;28;20088;-70
2021/03/07 06:21:55;;;;;;;9.38;6.65;;;;;;;-3.61;62.81;99698.75;5112034;28;20051;-70
2021/03/07 06:24:36;;;;;;;11.30;6.93;;;;;;;-3.75;63.08;99694.31;5112034;28;20060;-71
2021/03/07 06:27:05;;;;;;;8.00;6.30;;;;;;;-3.75;63.49;99694.31;5111979;28;20063;-71
2021/03/07 06:29:32;;;;;;;10.10;6.72;;;;;;;-3.65;63.31;99699.81;5111896;28;20495;-71
2021/03/07 06:31:59;;;;;;;10.05;6.40;;;;;;;-3.55;63.42;99687.28;5111873;28;20050;-71
2021/03/07 06:34:26;;;;;;;9.93;5.90;;;;;;;-3.49;63.53;99686.94;5110349;28;20130;-71
2021/03/07 06:37:02;;;;;;;9.38;6.20;;;;;;;-3.36;63.43;99693.09;5111767;28;20493;-71
2021/03/07 06:39:29;;;;;;;11.73;6.40;;;;;;;-3.28;62.84;99690.94;5110152;28;20048;-71
2021/03/07 06:42:04;;;;;;;8.45;5.82;;;;;;;-3.20;62.79;99687.94;5111848;28;20048;-71
2021/03/07 06:44:32;;;;;;;9.05;5.63;;;;;;;-3.10;62.53;99689.13;5110645;28;20086;-71
2021/03/07 06:47:15;;;;;;;9.73;5.60;;;;;;;-2.97;62.61;99684.09;5112828;28;20075;-73
2021/03/07 06:49:43;;;;;;;7.70;5.78;;;;;;;-2.82;61.97;99688.41;5113206;28;20046;-71
2021/03/07 06:52:15;;;;;;;12.05;6.43;;;;;;;-2.83;61.58;99678.97;5116237;28;20051;-73
2021/03/07 06:54:43;;;;;;;10.63;6.47;;;;;;;-3.01;61.31;99685.19;5116409;28;20039;-72
2021/03/07 06:57:12;;;;;;;8.32;5.88;;;;;;;-3.04;61.52;99682.75;5115952;28;20063;-72
2021/03/07 06:59:38;;;;;;;8.38;5.82;;;;;;;-3.05;61.68;99683.69;5115672;28;20550;-72
2021/03/07 07:02:11;;;;;;;8.98;6.32;;;;;;;-3.02;61.64;99673.16;5115554;27;20053;-72
2021/03/07 07:04:41;;;;;;;11.35;6.80;;;;;;;-2.96;61.56;99678.00;5115898;28;20130;-72
2021/03/07 07:07:09;;;;;;;9.20;6.55;;;;;;;-2.88;61.64;99672.38;5114661;28;20513;-72
2021/03/07 07:09:36;;;;;;;9.25;7.28;;;;;;;-2.76;61.42;99672.53;5114191;28;20161;-72
2021/03/07 07:12:05;;;;;;;11.70;7.18;;;;;;;-2.64;61.67;99672.75;5115678;28;20122;-72
2021/03/07 07:14:38;;;;;;;9.75;6.47;;;;;;;-2.41;61.41;99677.44;5115479;28;20048;-72
2021/03/07 07:17:06;;;;;;;8.20;6.03;;;;;;;-2.29;60.96;99670.69;5115409;28;20039;-72
2021/03/07 07:19:33;;;;;;;8.93;6.50;;;;;;;-2.23;60.68;99675.53;5114069;28;20048;-72
2021/03/07 07:22:00;;;;;;;12.43;6.78;;;;;;;-2.14;60.84;99672.38;5123437;28;20434;-73
2021/03/07 07:24:27;;;;;;;9.40;6.95;;;;;;;-1.96;60.70;99665.28;5115078;28;20487;-72
2021/03/07 07:26:56;;;;;;;9.68;6.75;;;;;;;-1.87;60.33;99664.72;5115493;28;20050;-72
2021/03/07 07:29:25;;;;;;;10.25;7.35;;;;;;;-1.82;59.58;99670.47;5116235;28;20077;-72
2021/03/07 07:31:58;;;;;;;10.48;7.15;;;;;;;-1.84;59.77;99672.34;5115879;28;20035;-72
2021/03/07 07:34:38;;;;;;;10.15;7.10;;;;;;;-1.76;59.94;99670.09;5115951;28;20052;-71
2021/03/07 07:37:13;;;;;;;12.82;7.53;;;;;;;-1.47;59.82;99674.41;5115622;28;20074;-70
2021/03/07 07:39:42;;;;;;;9.55;6.78;;;;;;;-1.35;59.18;99676.25;5114062;28;20592;-70
2021/03/07 07:42:24;;;;;;;13.65;8.38;;;;;;;-1.32;59.02;99668.28;5115567;28;20069;-70
2021/03/07 07:44:56;;;;;;;22.42;11.68;;;;;;;-1.26;58.84;99673.91;5114291;28;20051;-70
2021/03/07 07:47:24;;;;;;;15.98;10.00;;;;;;;-1.19;58.82;99666.56;5115650;28;20516;-71
2021/03/07 07:49:53;;;;;;;14.73;9.63;;;;;;;-1.13;58.11;99667.97;5116124;28;20082;-70
2021/03/07 07:52:39;;;;;;;11.90;8.50;;;;;;;-1.08;57.85;99661.53;5115761;27;20043;-70
2021/03/07 07:55:11;;;;;;;14.02;8.77;;;;;;;-1.01;58.15;99662.00;5115845;28;20100;-69
2021/03/07 07:57:51;;;;;;;12.20;7.72;;;;;;;-0.73;58.00;99668.84;5114319;28;20417;-70
2021/03/07 08:00:22;;;;;;;12.98;8.40;;;;;;;-0.55;57.64;99667.63;5115601;28;20039;-70
2021/03/07 08:02:56;;;;;;;11.18;8.20;;;;;;;-0.44;56.88;99666.09;5115369;28;20048;-70
2021/03/07 08:05:44;;;;;;;9.20;6.45;;;;;;;-0.39;56.95;99661.41;5114679;28;20044;-70
2021/03/07 08:08:15;;;;;;;10.18;7.40;;;;;;;-0.22;57.01;99661.09;5116147;28;20043;-70
2021/03/07 08:10:48;;;;;;;12.48;7.85;;;;;;;-0.16;56.39;99658.13;5115544;28;20044;-70
2021/03/07 08:13:43;;;;;;;11.63;7.32;;;;;;;-0.07;56.46;99654.88;5116427;28;20040;-71
2021/03/07 08:16:35;;;;;;;11.02;8.15;;;;;;;0.00;55.94;99663.09;5114595;28;20044;-69
2021/03/07 08:19:05;;;;;;;13.20;9.32;;;;;;;0.11;55.66;99649.34;5114154;28;20126;-71
2021/03/07 08:21:58;;;;;;;11.70;7.55;;;;;;;0.23;55.36;99649.34;5114768;28;20044;-70
2021/03/07 08:24:36;;;;;;;10.15;7.85;;;;;;;0.32;54.75;99649.63;5114989;28;20413;-70
2021/03/07 08:27:04;;;;;;;10.63;7.10;;;;;;;0.39;54.73;99643.06;5114187;28;20105;-70
2021/03/07 08:29:45;;;;;;;9.45;7.43;;;;;;;0.47;54.45;99643.38;5115416;28;20052;-70
2021/03/07 08:32:36;;;;;;;8.40;6.75;;;;;;;0.64;53.99;99645.59;5115130;28;20036;-70
2021/03/07 08:35:18;;;;;;;9.60;7.30;;;;;;;0.66;54.09;99635.94;5115217;28;20040;-70
2021/03/07 08:38:15;;;;;;;8.95;7.20;;;;;;;0.82;53.96;99637.44;5116020;28;20040;-70
2021/03/07 08:40:42;;;;;;;10.30;7.45;;;;;;;0.99;53.94;99624.03;5109892;28;20080;-71
2021/03/07 08:43:53;;;;;;;11.73;8.25;;;;;;;1.17;53.42;99627.06;5116153;28;20124;-70
2021/03/07 08:46:23;;;;;;;10.38;7.90;;;;;;;1.36;53.58;99629.16;5118325;27;20085;-71
2021/03/07 08:48:55;;;;;;;30.45;12.68;;;;;;;1.53;52.98;99620.06;5117932;28;20074;-70
2021/03/07 08:51:32;;;;;;;12.95;8.23;;;;;;;1.56;52.14;99620.69;5117476;28;20039;-70
2021/03/07 08:54:04;;;;;;;10.63;7.88;;;;;;;1.59;51.38;99617.00;5118448;28;20040;-70
2021/03/07 08:56:36;;;;;;;9.27;7.38;;;;;;;1.62;51.81;99617.59;5115270;28;20142;-70
2021/03/07 08:59:04;;;;;;;10.82;7.00;;;;;;;1.76;51.85;99613.13;5114279;28;20066;-70
2021/03/07 09:01:30;;;;;;;8.50;7.05;;;;;;;1.90;50.93;99608.50;5115149;28;20047;-70
2021/03/07 09:03:59;;;;;;;7.78;6.40;;;;;;;1.93;50.58;99605.66;5114634;28;20043;-70
2021/03/07 09:06:28;;;;;;;10.88;7.53;;;;;;;2.03;49.90;99599.75;5117570;28;20048;-71
2021/03/07 09:09:09;;;;;;;10.27;6.68;;;;;;;2.13;49.61;99603.31;5117005;28;20040;-71
2021/03/07 09:11:37;;;;;;;7.70;6.10;;;;;;;2.21;49.73;99599.16;5116472;28;20044;-71
2021/03/07 09:14:04;;;;;;;10.65;6.75;;;;;;;2.32;48.67;99594.84;5114260;28;20432;-71
2021/03/07 09:16:40;;;;;;;10.63;6.95;;;;;;;2.39;49.10;99589.03;5118245;28;20039;-69
2021/03/07 09:19:22;;;;;;;10.43;7.05;;;;;;;2.62;49.49;99591.63;5135658;28;20047;-71
2021/03/07 09:22:11;;;;;;;12.60;7.95;;;;;;;2.83;48.62;99586.44;5135633;28;20069;-69
2021/03/07 09:24:47;;;;;;;13.25;7.65;;;;;;;2.96;48.26;99584.50;5114933;28;20210;-69
2021/03/07 09:27:14;;;;;;;11.85;7.57;;;;;;;3.08;47.56;99578.25;5114976;28;20051;-69
2021/03/07 09:29:55;;;;;;;8.02;6.68;;;;;;;3.21;46.75;99578.09;5114577;28;20036;-69
2021/03/07 09:32:30;;;;;;;7.88;6.55;;;;;;;3.34;46.80;99567.44;5113789;28;20052;-69
2021/03/07 09:35:00;;;;;;;8.63;6.45;;;;;;;3.52;46.21;99565.91;5111780;28;20043;-69
2021/03/07 09:37:29;;;;;;;8.13;6.18;;;;;;;3.68;44.99;99565.44;5113630;28;20035;-69
2021/03/07 09:39:56;;;;;;;7.78;6.07;;;;;;;3.81;44.96;99565.22;5113519;28;20036;-69
2021/03/07 09:42:23;;;;;;;9.15;6.55;;;;;;;3.95;44.73;99560.47;5113202;28;20035;-69
2021/03/07 09:44:50;;;;;;;8.18;5.85;;;;;;;4.13;43.80;99562.47;5113099;28;20035;-69
2021/03/07 09:47:24;;;;;;;9.07;6.38;;;;;;;4.17;43.62;99556.84;5113155;28;20115;-69
2021/03/07 09:49:52;;;;;;;8.43;5.88;;;;;;;4.25;43.19;99563.19;5113088;28;20039;-69
2021/03/07 09:52:19;;;;;;;9.18;5.70;;;;;;;4.26;42.92;99557.81;5113529;28;20046;-69
2021/03/07 09:54:53;;;;;;;10.07;5.70;;;;;;;4.35;42.82;99551.78;5112811;28;20214;-69
2021/03/07 09:57:40;;;;;;;7.70;5.40;;;;;;;4.44;42.49;99550.97;5113334;28;20071;-69
2021/03/07 10:00:08;;;;;;;10.02;6.35;;;;;;;4.50;42.66;99551.41;5113267;28;20048;-69
2021/03/07 10:02:39;;;;;;;8.48;6.45;;;;;;;4.58;42.73;99549.75;5113817;28;20390;-70
2021/03/07 10:05:12;;;;;;;7.80;6.07;;;;;;;4.70;42.33;99548.69;5113367;28;20070;-69
2021/03/07 10:07:38;;;;;;;9.15;6.38;;;;;;;4.76;42.55;99549.09;5113577;28;20093;-69
2021/03/07 10:10:10;;;;;;;7.72;6.50;;;;;;;4.85;42.27;99535.97;5112448;28;20054;-70
2021/03/07 10:12:46;;;;;;;8.27;6.15;;;;;;;4.96;42.84;99542.88;5113577;28;20134;-70
2021/03/07 10:15:23;;;;;;;10.85;6.38;;;;;;;5.17;42.02;99540.09;5113822;28;20123;-71
2021/03/07 10:17:51;;;;;;;7.80;6.70;;;;;;;5.28;41.07;99537.34;5113597;28;20055;-71
2021/03/07 10:20:32;;;;;;;;;;;;;;;5.23;41.11;99536.94;5112595;28;20459;-69
2021/03/07 10:22:59;;;;;;;8.25;5.95;;;;;;;5.26;41.44;99527.94;5113592;28;19942;-71
2021/03/07 10:25:30;;;;;;;7.30;5.63;;;;;;;5.41;41.24;99529.97;5115078;28;20444;-70
2021/03/07 10:28:00;;;;;;;7.93;5.78;;;;;;;5.55;40.70;99525.25;5117235;28;20104;-71
2021/03/07 10:30:38;;;;;;;7.60;5.65;;;;;;;5.60;40.64;99526.50;5117313;28;20408;-71
2021/03/07 10:33:14;;;;;;;8.52;6.78;;;;;;;5.66;40.36;99519.84;5117067;28;20515;-70
2021/03/07 10:36:15;;;;;;;7.18;6.20;;;;;;;5.75;40.01;99524.22;5117411;28;20039;-71
2021/03/07 10:38:45;;;;;;;8.05;6.00;;;;;;;5.59;40.28;99518.75;5116476;28;20118;-71
2021/03/07 10:41:24;;;;;;;7.35;5.90;;;;;;;5.64;39.88;99508.69;5116566;28;20032;-71
2021/03/07 10:43:55;;;;;;;6.63;5.75;;;;;;;5.81;39.75;99509.72;5117097;28;20044;-71
2021/03/07 10:46:25;;;;;;;6.75;5.53;;;;;;;5.93;39.46;99498.91;5116429;28;20093;-71
2021/03/07 10:48:58;;;;;;;7.38;5.82;;;;;;;6.02;39.28;99501.63;5116623;28;20039;-71
2021/03/07 10:51:26;;;;;;;7.35;5.93;;;;;;;5.99;38.61;99496.66;5116318;28;20157;-71
2021/03/07 10:53:54;;;;;;;6.78;5.80;;;;;;;6.02;39.37;99493.75;5114956;28;20039;-70
2021/03/07 10:56:20;;;;;;;6.80;5.65;;;;;;;6.19;39.37;99491.16;5116333;28;20542;-71
2021/03/07 10:58:48;;;;;;;9.30;7.00;;;;;;;6.34;39.55;99488.03;5116323;28;20044;-71
2021/03/07 11:01:18;;;;;;;10.07;6.63;;;;;;;6.43;39.31;99485.34;5116141;28;20378;-69
2021/03/07 11:03:45;;;;;;;7.82;6.40;;;;;;;6.51;39.01;99479.34;5116549;28;20547;-71
2021/03/07 11:06:12;;;;;;;8.10;6.18;;;;;;;6.59;38.24;99478.59;5114676;28;20046;-71
2021/03/07 11:08:39;;;;;;;8.27;6.38;;;;;;;6.60;37.84;99478.44;5116007;27;20075;-70
2021/03/07 11:11:08;;;;;;;8.65;6.82;;;;;;;6.52;38.29;99472.28;5116209;28;20051;-69
2021/03/07 11:13:36;;;;;;;8.05;6.95;;;;;;;6.49;38.60;99483.94;5115607;28;20067;-71
2021/03/07 11:16:04;;;;;;;9.20;6.93;;;;;;;6.58;38.16;99472.50;5115489;28;20493;-70
2021/03/07 11:18:32;;;;;;;9.88;6.90;;;;;;;6.73;38.26;99474.59;5114936;28;20516;-70
2021/03/07 11:21:02;;;;;;;8.32;7.10;;;;;;;6.85;37.56;99474.19;5115161;28;20069;-70
2021/03/07 11:23:29;;;;;;;11.40;7.03;;;;;;;6.80;37.42;99476.47;5115194;27;20048;-71
2021/03/07 11:25:56;;;;;;;8.15;6.85;;;;;;;6.73;37.54;99474.59;5114934;28;20621;-68
2021/03/07 11:28:23;;;;;;;8.68;6.90;;;;;;;6.76;37.59;99461.16;5114386;28;20035;-69
2021/03/07 11:30:50;;;;;;;9.23;7.75;;;;;;;6.79;37.55;99459.06;5114786;28;20413;-72
2021/03/07 11:33:18;;;;;;;8.30;6.80;;;;;;;6.84;37.83;99453.34;5113477;28;20048;-70
2021/03/07 11:35:46;;;;;;;8.75;6.75;;;;;;;6.91;37.74;99449.13;5112656;28;20101;-69
2021/03/07 11:38:13;;;;;;;9.43;7.35;;;;;;;6.94;38.02;99444.41;5114786;28;20465;-69
2021/03/07 11:40:40;;;;;;;8.88;7.72;;;;;;;7.08;37.56;99434.28;5113456;28;20047;-68
2021/03/07 11:43:07;;;;;;;7.35;6.45;;;;;;;7.20;36.95;99433.88;5113222;28;20058;-68
2021/03/07 11:45:34;;;;;;;9.70;7.10;;;;;;;7.25;35.96;99432.59;5114210;28;20054;-69
2021/03/07 11:48:01;;;;;;;8.52;6.90;;;;;;;7.10;36.04;99433.16;5114341;28;20130;-69